Albertville, AL

7:03 PM CDT on September 20, 2014 (GMT -0500)
Double Bridges | Change Station
CLOSE
Current Station
Personal Weather Station
Location: Boaz, AL
Elevation: 1066 ft
Nearby Weather Stations

Elev 1066 ft 34.22 °N, 86.13 °W | Updated 21 seconds ago

Clear
Clear
72.7 °F
Feels Like 74 °F
N
0.0
Wind Variable Wind from SSE

Today
High -- | Low -- °F
--% Chance of Precip.
Yesterday
High -- | Low -- °F
Precip. -- in
6:31 AM 6:44 PM
Waning Crescent, 10% visible
Pressure 30.02 in
Visibility 10.0 miles
Clouds Clear
Heat Index 74 °F
Dew Point 64 °F
Humidity 74%
Rainfall 0.00 in
Snow Depth Not available.
UV 0 out of 12
Pollen 7.90 out of 12
Ozone Good
PM2.5 Good
Flu Activity Not available.
METAR K8A0 202355Z AUTO 13003KT 10SM CLR 25/20 A3002 RMK AO2

More Conditions Fewer Conditions

Pressure 30.02 in
Visibility 10.0 miles
Clouds Clear
Heat Index 74 °F
Dew Point 64 °F
Humidity 74%
Rainfall 0.00 in
Snow Depth Not available.
UV 0 out of 12
Pollen 7.90 out of 12
Ozone Good
PM2.5 Good
Flu Activity Not available.
METAR K8A0 202355Z AUTO 13003KT 10SM CLR 25/20 A3002 RMK AO2

More Conditions Fewer Conditions

10-Day Weather Forecast

Almanac

Astronomy

Sep. 20, 2014 Rise Set
Actual Time 6:31 AM CDT 6:44 PM CDT
Civil Twilight 6:06 AM CDT 7:09 PM CDT
Nautical Twilight 5:37 AM CDT 7:38 PM CDT
Astronomical Twilight 5:07 AM CDT 8:08 PM CDT
Moon 3:17 AM CDT (9/20) 4:41 PM CDT (9/20)
Length of Visible Light 13h 03m
Length of Day
12h 12m
Tomorrow will be 2m 6s shorter.
Waning Crescent, 10% of the Moon is Illuminated
Today
Waning Crescent
Sep 24
New
Oct 1
First Quarter
Oct 8
Full
Oct 15
Last Quarter

Today's Extremes

State Highs State Lows

Community

WunderPhotos

Upload Photos

1,754,982 photos uploaded!

WunderBlogs® & News

Nearby

Air Quality

  Air Quality AQ Index Pollutant
Yesterday Good
PM10
Yesterday Good
OZONE
Current Good
OZONE
Current Good
PM2.5
Saturday Good
PM2.5
Saturday Good
OZONE
Sunday Moderate
PM2.5
Sunday Good
OZONE
Monday Good
OZONE
Monday Good
PM2.5

Snow Depth

Station Depth Elevation
No new snow has been reported.

Earthquake Activity

City Distance Mag. Time & Date
Sweetwater, Tennessee 138 miles 2.5 2:54 PM CDT
2014-09-20
Minimum magnitude displayed is 2.5.

Coastal Water Temperatures

Place Temperature
No Stations Reporting

Nearby Weather Stations